Time;durP1;ratioP1;P1;durP2;ratioP2;P2;SDS_P1;SDS_P2;PMS_P1;PMS_P2;Temp;Humidity;BMP_temperature;BMP_pressure;BME280_temperature;BME280_humidity;BME280_pressure;Samples;Min_cycle;Max_cycle;Signal;HPM_P1;HPM_P2
2022/08/16 00:02:13;;;;;;;10.70;5.82;;;;;;;;;;5058829;28;20025;-59
2022/08/16 00:04:39;;;;;;;9.20;5.75;;;;;;;;;;5061206;28;20028;-59
2022/08/16 00:07:05;;;;;;;10.85;5.57;;;;;;;;;;5068049;28;20032;-59
2022/08/16 00:09:30;;;;;;;8.82;6.03;;;;;;;;;;5059036;28;20545;-59
2022/08/16 00:11:56;;;;;;;11.38;6.07;;;;;;;;;;5057816;28;20067;-59
2022/08/16 00:14:26;;;;;;;7.85;5.93;;;;;;;;;;5061111;28;20029;-59
2022/08/16 00:16:51;;;;;;;7.40;5.55;;;;;;;;;;5062198;28;20047;-59
2022/08/16 00:19:24;;;;;;;11.38;6.05;;;;;;;;;;5058248;28;20505;-59
2022/08/16 00:21:51;;;;;;;8.75;5.95;;;;;;;;;;5053846;28;20426;-59
2022/08/16 00:24:16;;;;;;;8.95;5.72;;;;;;;;;;5066214;28;20440;-59
2022/08/16 00:26:43;;;;;;;8.77;5.93;;;;;;;;;;5058625;28;20013;-59
2022/08/16 00:29:09;;;;;;;9.65;5.78;;;;;;;;;;5059880;28;20028;-59
2022/08/16 00:31:35;;;;;;;9.52;5.57;;;;;;;;;;5066272;28;20040;-59
2022/08/16 00:34:00;;;;;;;9.38;6.18;;;;;;;;;;5067954;28;20115;-59
2022/08/16 00:36:26;;;;;;;10.30;6.32;;;;;;;;;;5066208;28;20435;-59
2022/08/16 00:38:51;;;;;;;9.32;5.72;;;;;;;;;;5060697;28;20530;-59
2022/08/16 00:41:17;;;;;;;8.80;6.50;;;;;;;;;;5065631;28;20032;-59
2022/08/16 00:43:43;;;;;;;12.30;5.55;;;;;;;;;;5060626;28;20111;-59
2022/08/16 00:46:31;;;;;;;11.48;6.65;;;;;;;;;;5060834;28;20102;-59
2022/08/16 00:48:57;;;;;;;8.88;5.95;;;;;;;;;;5059315;28;20024;-59
2022/08/16 00:51:24;;;;;;;11.63;6.43;;;;;;;;;;5059675;28;20710;-59
2022/08/16 00:53:52;;;;;;;8.10;5.93;;;;;;;;;;5059823;28;20496;-59
2022/08/16 00:56:22;;;;;;;8.18;5.88;;;;;;;;;;5060298;28;20384;-59
2022/08/16 00:58:48;;;;;;;8.65;5.63;;;;;;;;;;5058877;28;20017;-59
2022/08/16 01:01:15;;;;;;;8.00;5.75;;;;;;;;;;5057500;28;20489;-59
2022/08/16 01:03:43;;;;;;;9.13;5.75;;;;;;;;;;5060115;28;20039;-59
2022/08/16 01:06:11;;;;;;;7.07;5.00;;;;;;;;;;5061590;28;20075;-59
2022/08/16 01:08:37;;;;;;;7.28;5.25;;;;;;;;;;5059377;28;20393;-59
2022/08/16 01:11:04;;;;;;;9.32;5.28;;;;;;;;;;5064030;28;20494;-59
2022/08/16 01:13:32;;;;;;;8.70;5.57;;;;;;;;;;5064283;28;20021;-59
2022/08/16 01:16:01;;;;;;;10.40;4.72;;;;;;;;;;5065258;28;20024;-59
2022/08/16 01:18:37;;;;;;;8.45;5.28;;;;;;;;;;5063228;28;20029;-59
2022/08/16 01:21:22;;;;;;;7.60;5.07;;;;;;;;;;5068484;28;20111;-59
2022/08/16 01:24:04;;;;;;;7.68;4.65;;;;;;;;;;5069070;28;20041;-59
2022/08/16 01:26:32;;;;;;;8.23;5.82;;;;;;;;;;5065276;28;20029;-59
2022/08/16 01:29:02;;;;;;;8.32;5.22;;;;;;;;;;5064174;28;20020;-59
2022/08/16 01:31:28;;;;;;;8.57;5.38;;;;;;;;;;5063718;28;20429;-59
2022/08/16 01:33:54;;;;;;;7.50;5.07;;;;;;;;;;5061986;28;20108;-59
2022/08/16 01:36:20;;;;;;;6.88;4.82;;;;;;;;;;5060934;28;20041;-59
2022/08/16 01:38:48;;;;;;;10.02;5.53;;;;;;;;;;5067564;28;20481;-59
2022/08/16 01:41:23;;;;;;;8.15;5.53;;;;;;;;;;5068234;28;20432;-59
2022/08/16 01:43:50;;;;;;;8.95;5.70;;;;;;;;;;5066678;28;20433;-59
2022/08/16 01:46:28;;;;;;;8.55;4.70;;;;;;;;;;5066847;28;20029;-59
2022/08/16 01:49:09;;;;;;;7.43;5.05;;;;;;;;;;5064107;28;20371;-59
2022/08/16 01:51:35;;;;;;;7.47;5.00;;;;;;;;;;5060987;28;20021;-59
2022/08/16 01:54:01;;;;;;;6.80;5.50;;;;;;;;;;5064585;28;20520;-59
2022/08/16 01:56:28;;;;;;;8.68;5.50;;;;;;;;;;5064346;28;20048;-59
2022/08/16 01:58:55;;;;;;;9.80;5.60;;;;;;;;;;5061196;28;20074;-59
2022/08/16 02:01:21;;;;;;;8.80;5.60;;;;;;;;;;5060027;28;20016;-59
2022/08/16 02:03:47;;;;;;;7.70;5.30;;;;;;;;;;5060683;28;20100;-59
2022/08/16 02:06:12;;;;;;;6.90;5.50;;;;;;;;;;5062417;28;20033;-59
2022/08/16 02:08:37;;;;;;;8.45;5.90;;;;;;;;;;5063966;28;20025;-59
2022/08/16 02:11:06;;;;;;;9.18;5.75;;;;;;;;;;5063861;28;20111;-59
2022/08/16 02:13:31;;;;;;;6.90;5.33;;;;;;;;;;5069921;28;20074;-58
2022/08/16 02:15:57;;;;;;;6.72;5.80;;;;;;;;;;5070770;28;20024;-59
2022/08/16 02:18:23;;;;;;;11.90;6.93;;;;;;;;;;5068234;28;20132;-59
2022/08/16 02:20:50;;;;;;;17.52;9.82;;;;;;;;;;5066363;28;20040;-59
2022/08/16 02:23:17;;;;;;;14.30;7.95;;;;;;;;;;5061918;28;20036;-59
2022/08/16 02:25:42;;;;;;;15.25;6.53;;;;;;;;;;5064193;28;20016;-59
2022/08/16 02:28:08;;;;;;;7.10;5.53;;;;;;;;;;5064931;28;20401;-59
2022/08/16 02:30:33;;;;;;;7.68;5.45;;;;;;;;;;5065963;28;20090;-59
2022/08/16 02:32:59;;;;;;;8.07;5.13;;;;;;;;;;5065815;28;20650;-59
2022/08/16 02:35:25;;;;;;;8.00;5.25;;;;;;;;;;5063084;28;20017;-59
2022/08/16 02:37:53;;;;;;;9.07;5.50;;;;;;;;;;5058160;28;20070;-60
2022/08/16 02:40:20;;;;;;;7.05;4.75;;;;;;;;;;5060021;28;20028;-59
2022/08/16 02:42:47;;;;;;;6.97;4.90;;;;;;;;;;5060333;28;20425;-59
2022/08/16 02:45:13;;;;;;;13.95;8.35;;;;;;;;;;5064005;28;20111;-59
2022/08/16 02:47:39;;;;;;;9.48;6.38;;;;;;;;;;5065189;28;20615;-59
2022/08/16 02:50:05;;;;;;;6.60;5.38;;;;;;;;;;5059209;28;20265;-59
2022/08/16 02:52:31;;;;;;;7.70;5.38;;;;;;;;;;5060816;28;20024;-59
2022/08/16 02:54:57;;;;;;;8.57;5.25;;;;;;;;;;5068746;28;20028;-59
2022/08/16 02:57:23;;;;;;;8.18;5.20;;;;;;;;;;5064600;28;20032;-59
2022/08/16 02:59:49;;;;;;;6.82;5.35;;;;;;;;;;5068043;28;20035;-59
2022/08/16 03:02:15;;;;;;;11.57;5.88;;;;;;;;;;5061300;28;20020;-59
2022/08/16 03:04:41;;;;;;;9.20;5.75;;;;;;;;;;5060034;28;20071;-59
2022/08/16 03:07:06;;;;;;;7.60;5.43;;;;;;;;;;5059753;28;20100;-59
2022/08/16 03:09:33;;;;;;;9.77;5.82;;;;;;;;;;5062909;28;20020;-59
2022/08/16 03:11:58;;;;;;;8.90;5.78;;;;;;;;;;5063981;28;20017;-59
2022/08/16 03:14:25;;;;;;;9.38;6.03;;;;;;;;;;5069646;28;20082;-59
2022/08/16 03:16:52;;;;;;;8.00;6.13;;;;;;;;;;5069896;28;20074;-59
2022/08/16 03:19:18;;;;;;;8.05;5.95;;;;;;;;;;5067800;28;20032;-59
2022/08/16 03:21:43;;;;;;;9.48;6.50;;;;;;;;;;5058217;28;20031;-59
2022/08/16 03:24:08;;;;;;;9.13;6.40;;;;;;;;;;5060048;28;20033;-58
2022/08/16 03:26:34;;;;;;;7.68;6.10;;;;;;;;;;5062874;28;20016;-59
2022/08/16 03:28:59;;;;;;;10.43;6.50;;;;;;;;;;5067658;28;20090;-59
2022/08/16 03:31:25;;;;;;;9.13;6.78;;;;;;;;;;5057695;28;20481;-59
2022/08/16 03:33:51;;;;;;;9.02;6.35;;;;;;;;;;5059963;28;20048;-59
2022/08/16 03:36:16;;;;;;;9.52;7.00;;;;;;;;;;5060978;28;20062;-59
2022/08/16 03:38:42;;;;;;;9.27;6.43;;;;;;;;;;5061213;28;20055;-59
2022/08/16 03:41:08;;;;;;;11.95;6.55;;;;;;;;;;5057906;28;20483;-59
2022/08/16 03:43:34;;;;;;;9.60;6.80;;;;;;;;;;5066713;28;20567;-59
2022/08/16 03:46:00;;;;;;;11.32;7.07;;;;;;;;;;5059029;28;20071;-59
2022/08/16 03:48:31;;;;;;;9.63;7.38;;;;;;;;;;5062847;28;20062;-59
2022/08/16 03:50:58;;;;;;;10.70;7.28;;;;;;;;;;5060788;28;20487;-59
2022/08/16 03:53:24;;;;;;;11.68;7.57;;;;;;;;;;5057154;28;20025;-59
2022/08/16 03:55:50;;;;;;;11.13;7.40;;;;;;;;;;5062246;28;20028;-58
2022/08/16 03:58:15;;;;;;;12.30;7.32;;;;;;;;;;5062597;28;20025;-59
2022/08/16 04:00:41;;;;;;;12.63;7.40;;;;;;;;;;5063174;28;20032;-59
2022/08/16 04:03:06;;;;;;;10.27;7.13;;;;;;;;;;5061863;28;20489;-59
2022/08/16 04:05:38;;;;;;;9.82;7.35;;;;;;;;;;5060307;28;20537;-59
2022/08/16 04:08:04;;;;;;;10.30;7.55;;;;;;;;;;5052333;28;20122;-59
2022/08/16 04:10:30;;;;;;;11.63;7.82;;;;;;;;;;5054331;28;20055;-58
2022/08/16 04:12:57;;;;;;;9.55;6.97;;;;;;;;;;5060990;28;20102;-59
2022/08/16 04:15:23;;;;;;;10.15;7.18;;;;;;;;;;5059348;28;20032;-59
2022/08/16 04:17:48;;;;;;;10.38;8.15;;;;;;;;;;5064953;28;20035;-59
2022/08/16 04:20:15;;;;;;;12.85;7.88;;;;;;;;;;5060557;28;20033;-59
2022/08/16 04:22:42;;;;;;;11.93;7.45;;;;;;;;;;5066563;28;20031;-59
2022/08/16 04:25:10;;;;;;;15.80;8.13;;;;;;;;;;5060598;28;20048;-59
2022/08/16 04:27:36;;;;;;;11.80;7.45;;;;;;;;;;5061853;28;20082;-59
2022/08/16 04:30:06;;;;;;;13.73;7.72;;;;;;;;;;5055597;28;20041;-59
2022/08/16 04:32:31;;;;;;;9.70;7.78;;;;;;;;;;5066279;28;20044;-59
2022/08/16 04:34:56;;;;;;;12.57;7.70;;;;;;;;;;5062607;28;20580;-59
2022/08/16 04:37:22;;;;;;;12.88;7.78;;;;;;;;;;5066032;28;20032;-59
2022/08/16 04:39:47;;;;;;;10.85;7.25;;;;;;;;;;5061909;28;20024;-59
2022/08/16 04:42:17;;;;;;;11.73;7.38;;;;;;;;;;5057822;28;20024;-59
2022/08/16 04:44:43;;;;;;;10.73;7.22;;;;;;;;;;5062406;28;20044;-59
2022/08/16 04:47:09;;;;;;;11.85;7.20;;;;;;;;;;5065960;28;20060;-59
2022/08/16 04:49:34;;;;;;;11.82;7.10;;;;;;;;;;5065758;28;20520;-59
2022/08/16 04:52:00;;;;;;;11.93;7.65;;;;;;;;;;5064207;28;20020;-59
2022/08/16 04:54:25;;;;;;;10.82;6.80;;;;;;;;;;5065505;28;20028;-59
2022/08/16 04:56:51;;;;;;;11.88;7.55;;;;;;;;;;5064062;28;20017;-59
2022/08/16 04:59:16;;;;;;;10.75;7.47;;;;;;;;;;5064652;28;20029;-59
2022/08/16 05:01:42;;;;;;;10.93;6.93;;;;;;;;;;5064293;28;20028;-59
2022/08/16 05:04:07;;;;;;;12.43;7.32;;;;;;;;;;5063478;28;20025;-59
2022/08/16 05:06:33;;;;;;;12.52;7.28;;;;;;;;;;5067520;28;20451;-58
2022/08/16 05:08:58;;;;;;;13.80;8.02;;;;;;;;;;5061424;28;20529;-58
2022/08/16 05:11:26;;;;;;;11.05;7.07;;;;;;;;;;5070294;28;20069;-59
2022/08/16 05:13:51;;;;;;;11.07;7.43;;;;;;;;;;5070482;28;20428;-59
2022/08/16 05:16:26;;;;;;;11.05;7.40;;;;;;;;;;5070574;28;20077;-59
2022/08/16 05:18:53;;;;;;;11.82;7.80;;;;;;;;;;5057694;28;20017;-59
2022/08/16 05:21:19;;;;;;;12.52;7.97;;;;;;;;;;5063218;28;20025;-58
2022/08/16 05:23:45;;;;;;;10.50;7.47;;;;;;;;;;5065537;28;20064;-58
2022/08/16 05:26:10;;;;;;;10.50;7.35;;;;;;;;;;5063548;28;20032;-59
2022/08/16 05:28:36;;;;;;;13.25;7.68;;;;;;;;;;5069935;28;20114;-59
2022/08/16 05:31:02;;;;;;;12.50;7.75;;;;;;;;;;5063785;28;20035;-59
2022/08/16 05:33:27;;;;;;;11.98;7.65;;;;;;;;;;5061528;28;20031;-58
2022/08/16 05:35:53;;;;;;;9.00;7.38;;;;;;;;;;5060982;28;20024;-57
2022/08/16 05:38:18;;;;;;;7.65;6.22;;;;;;;;;;5064234;28;20032;-57
2022/08/16 05:40:44;;;;;;;10.65;6.70;;;;;;;;;;5063453;28;20489;-59
2022/08/16 05:43:10;;;;;;;11.57;7.28;;;;;;;;;;5061765;28;20268;-59
2022/08/16 05:45:35;;;;;;;10.32;8.10;;;;;;;;;;5070216;28;20535;-59
2022/08/16 05:48:01;;;;;;;10.25;7.60;;;;;;;;;;5065274;28;20028;-59
2022/08/16 05:50:26;;;;;;;11.00;7.25;;;;;;;;;;5068531;28;20021;-59
2022/08/16 05:52:52;;;;;;;10.10;7.22;;;;;;;;;;5063191;28;20032;-58
2022/08/16 05:55:18;;;;;;;13.23;7.60;;;;;;;;;;5062862;28;20574;-59
2022/08/16 05:57:45;;;;;;;12.20;7.85;;;;;;;;;;5061947;28;20060;-59
2022/08/16 06:00:13;;;;;;;13.73;7.22;;;;;;;;;;5061705;28;20504;-59
2022/08/16 06:02:40;;;;;;;11.40;7.88;;;;;;;;;;5061246;28;20050;-59
2022/08/16 06:05:06;;;;;;;12.43;8.18;;;;;;;;;;5062950;28;20037;-62
2022/08/16 06:07:32;;;;;;;15.85;7.85;;;;;;;;;;5059919;28;20051;-58
2022/08/16 06:09:58;;;;;;;9.52;7.50;;;;;;;;;;5059281;28;20502;-59
2022/08/16 06:12:25;;;;;;;12.52;8.15;;;;;;;;;;5066632;28;20039;-59
2022/08/16 06:14:50;;;;;;;11.25;7.72;;;;;;;;;;5065249;28;20035;-59
2022/08/16 06:17:15;;;;;;;14.07;7.82;;;;;;;;;;5066469;28;20040;-59
2022/08/16 06:19:44;;;;;;;9.57;7.32;;;;;;;;;;5066859;28;20027;-59
2022/08/16 06:22:10;;;;;;;11.68;6.95;;;;;;;;;;5063832;28;20024;-59
2022/08/16 06:24:35;;;;;;;9.27;7.55;;;;;;;;;;5065908;28;20402;-59
2022/08/16 06:27:01;;;;;;;14.00;7.80;;;;;;;;;;5064284;28;20417;-59
2022/08/16 06:29:26;;;;;;;13.02;7.13;;;;;;;;;;5062103;28;20028;-59
2022/08/16 06:31:52;;;;;;;9.57;7.10;;;;;;;;;;5064750;28;20077;-59
2022/08/16 06:34:18;;;;;;;9.45;7.68;;;;;;;;;;5064158;28;20029;-59
2022/08/16 06:36:43;;;;;;;10.85;7.38;;;;;;;;;;5065711;28;20048;-59
2022/08/16 06:39:08;;;;;;;10.02;7.72;;;;;;;;;;5065234;28;20028;-59
2022/08/16 06:41:34;;;;;;;9.75;7.25;;;;;;;;;;5063792;28;20107;-59
2022/08/16 06:44:00;;;;;;;12.30;7.32;;;;;;;;;;5064794;28;20041;-59
2022/08/16 06:46:26;;;;;;;11.40;8.05;;;;;;;;;;5060790;28;20055;-59
2022/08/16 06:48:52;;;;;;;11.38;7.68;;;;;;;;;;5062187;28;20028;-59
2022/08/16 06:51:18;;;;;;;11.77;8.20;;;;;;;;;;5065122;28;20016;-59
2022/08/16 06:53:43;;;;;;;10.52;8.02;;;;;;;;;;5062106;28;20020;-59
2022/08/16 06:56:09;;;;;;;11.45;8.43;;;;;;;;;;5060161;28;20020;-59
2022/08/16 06:58:35;;;;;;;13.27;8.73;;;;;;;;;;5061224;28;20020;-59
2022/08/16 07:01:01;;;;;;;12.73;8.30;;;;;;;;;;5059990;28;20043;-58
2022/08/16 07:03:28;;;;;;;12.73;8.63;;;;;;;;;;5064200;28;20039;-58
2022/08/16 07:05:55;;;;;;;12.18;8.40;;;;;;;;;;5064851;28;20054;-58
2022/08/16 07:08:22;;;;;;;13.10;8.73;;;;;;;;;;5072022;28;20040;-58
2022/08/16 07:10:48;;;;;;;13.90;8.77;;;;;;;;;;5056400;28;20013;-58
2022/08/16 07:13:13;;;;;;;11.63;8.20;;;;;;;;;;5056298;28;20397;-58
2022/08/16 07:15:41;;;;;;;10.93;8.13;;;;;;;;;;5058594;28;20482;-58
2022/08/16 07:18:06;;;;;;;12.30;8.20;;;;;;;;;;5061945;28;20025;-58
2022/08/16 07:20:32;;;;;;;13.25;8.75;;;;;;;;;;5061641;28;20034;-58
2022/08/16 07:22:58;;;;;;;13.73;8.40;;;;;;;;;;5064195;28;20032;-58
2022/08/16 07:25:23;;;;;;;14.23;7.85;;;;;;;;;;5060617;28;20037;-58
2022/08/16 07:27:49;;;;;;;11.45;7.85;;;;;;;;;;5061768;28;20032;-58
2022/08/16 07:30:17;;;;;;;10.55;8.77;;;;;;;;;;5063026;28;20393;-58
2022/08/16 07:32:42;;;;;;;11.18;8.38;;;;;;;;;;5062655;28;20029;-58
2022/08/16 07:35:08;;;;;;;11.50;8.27;;;;;;;;;;5061900;28;20036;-58
2022/08/16 07:37:34;;;;;;;12.10;10.05;;;;;;;;;;5060868;28;20029;-57
2022/08/16 07:40:00;;;;;;;11.75;9.48;;;;;;;;;;5067500;28;20135;-58
2022/08/16 07:42:26;;;;;;;12.88;9.15;;;;;;;;;;5061819;28;20020;-57
2022/08/16 07:44:51;;;;;;;12.63;8.70;;;;;;;;;;5065672;28;20039;-57
2022/08/16 07:47:17;;;;;;;15.68;9.45;;;;;;;;;;5062471;28;20017;-57
2022/08/16 07:49:42;;;;;;;11.40;8.90;;;;;;;;;;5054288;28;20485;-58
2022/08/16 07:52:08;;;;;;;11.75;9.13;;;;;;;;;;5056925;28;20110;-58
2022/08/16 07:54:33;;;;;;;12.18;8.95;;;;;;;;;;5059873;28;20024;-57
2022/08/16 07:56:59;;;;;;;11.07;8.90;;;;;;;;;;5062570;28;20401;-58
2022/08/16 07:59:24;;;;;;;13.30;8.93;;;;;;;;;;5064335;28;20310;-58
2022/08/16 08:01:51;;;;;;;12.93;8.70;;;;;;;;;;5057834;28;20021;-58
2022/08/16 08:04:18;;;;;;;11.18;8.40;;;;;;;;;;5059187;28;20111;-57
2022/08/16 08:06:44;;;;;;;12.45;9.02;;;;;;;;;;5063160;28;20039;-58
2022/08/16 08:09:09;;;;;;;12.15;8.95;;;;;;;;;;5063248;28;20031;-57
2022/08/16 08:11:35;;;;;;;14.73;9.73;;;;;;;;;;5054125;28;20013;-58
2022/08/16 08:14:01;;;;;;;14.25;9.40;;;;;;;;;;5060009;28;20086;-58
2022/08/16 08:16:27;;;;;;;12.23;9.10;;;;;;;;;;5064401;28;20065;-58
2022/08/16 08:18:55;;;;;;;14.35;8.70;;;;;;;;;;5063438;28;20033;-58
2022/08/16 08:21:23;;;;;;;9.73;8.63;;;;;;;;;;5066608;28;20020;-57
2022/08/16 08:23:49;;;;;;;12.05;8.70;;;;;;;;;;5064326;28;20028;-57
2022/08/16 08:26:16;;;;;;;13.25;8.45;;;;;;;;;;5064789;28;20027;-58
2022/08/16 08:28:41;;;;;;;10.55;8.73;;;;;;;;;;5062155;28;20060;-58
2022/08/16 08:31:07;;;;;;;14.23;9.07;;;;;;;;;;5063795;28;20499;-57
2022/08/16 08:33:32;;;;;;;13.27;8.50;;;;;;;;;;5063719;28;20381;-58
2022/08/16 08:36:00;;;;;;;12.63;8.57;;;;;;;;;;5067158;28;20119;-58
2022/08/16 08:38:26;;;;;;;12.75;8.77;;;;;;;;;;5062350;28;20025;-58
2022/08/16 08:40:53;;;;;;;10.93;8.52;;;;;;;;;;5061330;28;20021;-58
2022/08/16 08:43:18;;;;;;;16.33;8.50;;;;;;;;;;5065357;28;20033;-58
2022/08/16 08:45:44;;;;;;;9.63;8.13;;;;;;;;;;5064085;28;20082;-58
2022/08/16 08:48:10;;;;;;;13.23;7.90;;;;;;;;;;5067411;28;20028;-58
2022/08/16 08:50:35;;;;;;;10.60;8.77;;;;;;;;;;5065514;28;20111;-58
2022/08/16 08:53:01;;;;;;;11.18;8.23;;;;;;;;;;5061721;28;20064;-59
2022/08/16 08:55:27;;;;;;;11.90;8.98;;;;;;;;;;5062913;28;20067;-58
2022/08/16 08:57:52;;;;;;;11.50;8.40;;;;;;;;;;5067440;28;20052;-58
2022/08/16 09:00:21;;;;;;;13.00;8.45;;;;;;;;;;5061714;28;20029;-58
2022/08/16 09:02:48;;;;;;;10.15;7.78;;;;;;;;;;5058900;28;20088;-58
2022/08/16 09:05:15;;;;;;;11.82;8.45;;;;;;;;;;5059333;28;20509;-59
2022/08/16 09:07:41;;;;;;;11.73;8.07;;;;;;;;;;5063144;28;20509;-59
2022/08/16 09:10:08;;;;;;;10.13;7.63;;;;;;;;;;5057603;28;20111;-59
2022/08/16 09:12:34;;;;;;;11.60;8.13;;;;;;;;;;5062298;28;20460;-59
2022/08/16 09:14:59;;;;;;;8.07;7.28;;;;;;;;;;5066436;28;20086;-59
2022/08/16 09:17:25;;;;;;;15.20;7.43;;;;;;;;;;5061738;28;20040;-59
2022/08/16 09:19:54;;;;;;;13.40;7.35;;;;;;;;;;5064734;28;20063;-59
2022/08/16 09:22:20;;;;;;;10.37;8.10;;;;;;;;;;5063765;28;20390;-59
2022/08/16 09:24:45;;;;;;;8.40;7.20;;;;;;;;;;5064152;28;20037;-59
2022/08/16 09:27:11;;;;;;;8.57;7.10;;;;;;;;;;5058566;28;20024;-59
2022/08/16 09:29:36;;;;;;;9.20;7.38;;;;;;;;;;5056505;28;20033;-59
2022/08/16 09:32:02;;;;;;;9.75;7.38;;;;;;;;;;5067819;28;20084;-59
2022/08/16 09:34:28;;;;;;;12.80;6.90;;;;;;;;;;5067643;28;20024;-59
2022/08/16 09:36:56;;;;;;;8.07;7.15;;;;;;;;;;5063657;28;20486;-59
2022/08/16 09:39:24;;;;;;;10.15;7.13;;;;;;;;;;5064985;28;20482;-59
2022/08/16 09:41:51;;;;;;;9.75;7.15;;;;;;;;;;5064875;28;20043;-59
2022/08/16 09:44:19;;;;;;;9.07;7.45;;;;;;;;;;5061335;28;20040;-59
2022/08/16 09:46:46;;;;;;;10.57;6.97;;;;;;;;;;5065267;28;20108;-59
2022/08/16 09:49:12;;;;;;;10.07;7.03;;;;;;;;;;5068146;28;20298;-59
2022/08/16 09:51:39;;;;;;;10.50;7.10;;;;;;;;;;5060938;28;20104;-59
2022/08/16 09:54:05;;;;;;;8.68;6.88;;;;;;;;;;5061803;28;20494;-59
2022/08/16 09:56:34;;;;;;;10.80;7.10;;;;;;;;;;5068515;28;20081;-59
2022/08/16 09:59:01;;;;;;;10.40;6.80;;;;;;;;;;5062299;28;20107;-59
2022/08/16 10:01:27;;;;;;;11.45;7.22;;;;;;;;;;5057185;28;20028;-59
2022/08/16 10:03:53;;;;;;;8.45;6.32;;;;;;;;;;5056231;28;20539;-57
2022/08/16 10:06:20;;;;;;;8.80;6.93;;;;;;;;;;5065204;28;20024;-57
2022/08/16 10:08:47;;;;;;;7.90;6.53;;;;;;;;;;5067667;28;20418;-58
2022/08/16 10:13:57;;;;;;;9.40;6.13;;;;;;;;;;5064948;28;20058;-58
2022/08/16 10:16:23;;;;;;;10.10;6.78;;;;;;;;;;5058611;28;20493;-57
2022/08/16 10:18:48;;;;;;;8.02;6.40;;;;;;;;;;5055638;28;20037;-57
2022/08/16 10:21:14;;;;;;;7.20;6.30;;;;;;;;;;5060649;28;20112;-58
2022/08/16 10:23:40;;;;;;;10.13;6.63;;;;;;;;;;5060160;28;20039;-57
2022/08/16 10:26:06;;;;;;;8.20;6.60;;;;;;;;;;5063711;28;20032;-57
2022/08/16 10:28:32;;;;;;;8.68;6.32;;;;;;;;;;5059388;28;20079;-57
2022/08/16 10:30:59;;;;;;;16.70;12.50;;;;;;;;;;5064609;28;20031;-57
2022/08/16 10:33:26;;;;;;;8.70;6.88;;;;;;;;;;5065131;28;20016;-57
2022/08/16 10:35:52;;;;;;;8.55;6.63;;;;;;;;;;5063662;28;20457;-57
2022/08/16 10:38:17;;;;;;;10.40;7.28;;;;;;;;;;5067660;28;20052;-57
2022/08/16 10:40:43;;;;;;;8.00;7.00;;;;;;;;;;5060744;28;20036;-58
2022/08/16 10:43:09;;;;;;;10.48;8.00;;;;;;;;;;5060078;28;20087;-57
2022/08/16 10:45:34;;;;;;;8.13;6.18;;;;;;;;;;5063496;28;20579;-56
2022/08/16 10:48:00;;;;;;;10.40;7.32;;;;;;;;;;5061768;28;20082;-56
2022/08/16 10:50:27;;;;;;;8.38;6.72;;;;;;;;;;5059562;28;20572;-56
2022/08/16 10:52:53;;;;;;;12.15;7.13;;;;;;;;;;5056505;28;20013;-56
2022/08/16 10:55:19;;;;;;;8.73;6.05;;;;;;;;;;5059774;28;20036;-56
2022/08/16 10:57:45;;;;;;;10.90;6.50;;;;;;;;;;5059783;28;20024;-56
2022/08/16 11:00:13;;;;;;;11.38;7.00;;;;;;;;;;5061856;28;20024;-56
2022/08/16 11:02:40;;;;;;;7.45;6.07;;;;;;;;;;5054086;28;20013;-57
2022/08/16 11:05:11;;;;;;;8.25;6.25;;;;;;;;;;5055896;28;20037;-57
2022/08/16 11:07:38;;;;;;;9.15;6.18;;;;;;;;;;5059705;28;20104;-57
2022/08/16 11:10:04;;;;;;;9.35;6.00;;;;;;;;;;5062771;28;20469;-56
2022/08/16 11:12:29;;;;;;;10.90;6.07;;;;;;;;;;5065159;28;20028;-56
2022/08/16 11:14:55;;;;;;;8.68;6.25;;;;;;;;;;5064719;28;20016;-56
2022/08/16 11:17:20;;;;;;;6.85;5.40;;;;;;;;;;5059925;28;20457;-58
2022/08/16 11:19:45;;;;;;;7.22;6.00;;;;;;;;;;5062298;28;20506;-58
2022/08/16 11:22:11;;;;;;;9.18;5.88;;;;;;;;;;5059760;28;20029;-58
2022/08/16 11:24:39;;;;;;;8.13;5.93;;;;;;;;;;5065097;28;20043;-58
2022/08/16 11:27:07;;;;;;;8.65;5.25;;;;;;;;;;5062684;28;20032;-58
2022/08/16 11:29:34;;;;;;;7.03;5.63;;;;;;;;;;5063063;28;20370;-58
2022/08/16 11:32:00;;;;;;;6.25;5.50;;;;;;;;;;5061856;28;20505;-58
2022/08/16 11:34:25;;;;;;;6.95;5.22;;;;;;;;;;5062930;28;20107;-58
2022/08/16 11:36:51;;;;;;;5.88;5.28;;;;;;;;;;5057404;28;20165;-58
2022/08/16 11:39:16;;;;;;;6.80;5.45;;;;;;;;;;5063257;28;20025;-58
2022/08/16 11:41:42;;;;;;;9.48;5.88;;;;;;;;;;5063303;28;20092;-58
2022/08/16 11:44:08;;;;;;;9.30;5.40;;;;;;;;;;5060178;28;20487;-58
2022/08/16 11:46:34;;;;;;;7.05;4.63;;;;;;;;;;5065457;28;20029;-58
2022/08/16 11:49:01;;;;;;;5.95;5.35;;;;;;;;;;5059823;28;20040;-58
2022/08/16 11:51:27;;;;;;;5.85;5.15;;;;;;;;;;5059965;28;20024;-59
2022/08/16 11:53:52;;;;;;;6.88;5.00;;;;;;;;;;5058961;28;20607;-60
2022/08/16 11:56:18;;;;;;;6.57;5.28;;;;;;;;;;5063917;28;20111;-58
2022/08/16 11:58:43;;;;;;;5.80;5.18;;;;;;;;;;5056490;28;20023;-59
2022/08/16 12:01:09;;;;;;;6.72;4.93;;;;;;;;;;5059652;28;20031;-59
2022/08/16 12:03:35;;;;;;;7.60;5.00;;;;;;;;;;5058417;28;20553;-58
2022/08/16 12:06:17;;;;;;;8.27;5.15;;;;;;;;;;5056815;28;20102;-59
2022/08/16 12:08:45;;;;;;;6.63;5.03;;;;;;;;;;5055832;28;20489;-59
2022/08/16 12:11:12;;;;;;;7.25;5.30;;;;;;;;;;5059516;28;21822;-58
2022/08/16 12:13:39;;;;;;;6.72;5.38;;;;;;;;;;5064648;28;20064;-59
2022/08/16 12:16:07;;;;;;;6.70;5.00;;;;;;;;;;5064325;28;20039;-59
2022/08/16 12:18:32;;;;;;;7.72;5.07;;;;;;;;;;5063280;28;20416;-59
2022/08/16 12:20:58;;;;;;;10.57;4.72;;;;;;;;;;5063777;28;20039;-59
2022/08/16 12:23:23;;;;;;;5.53;4.40;;;;;;;;;;5059947;28;20118;-59
2022/08/16 12:25:49;;;;;;;11.23;4.45;;;;;;;;;;5062599;28;20033;-59
2022/08/16 12:28:15;;;;;;;7.97;4.85;;;;;;;;;;5059500;28;20033;-58
2022/08/16 12:30:43;;;;;;;6.43;4.88;;;;;;;;;;5060387;28;20037;-58
2022/08/16 12:33:13;;;;;;;8.73;4.68;;;;;;;;;;5060080;28;20457;-59
2022/08/16 12:35:39;;;;;;;4.95;4.47;;;;;;;;;;5062481;28;20067;-59
2022/08/16 12:38:05;;;;;;;6.05;5.20;;;;;;;;;;5063243;28;21292;-59
2022/08/16 12:40:34;;;;;;;8.82;4.90;;;;;;;;;;5061613;28;20071;-58
2022/08/16 12:43:02;;;;;;;5.75;4.97;;;;;;;;;;5057563;28;20200;-59
2022/08/16 12:45:30;;;;;;;6.05;4.82;;;;;;;;;;5058020;28;20539;-59
2022/08/16 12:50:40;;;;;;;7.60;4.80;;;;;;;;;;5057600;28;20001;-60
2022/08/16 12:53:05;;;;;;;6.40;4.70;;;;;;;;;;5056589;28;20116;-59
2022/08/16 12:55:31;;;;;;;6.03;4.97;;;;;;;;;;5058123;28;20032;-59
2022/08/16 12:57:57;;;;;;;7.40;4.50;;;;;;;;;;5062736;28;20036;-58
2022/08/16 13:00:28;;;;;;;6.00;4.43;;;;;;;;;;5055540;28;20037;-59
2022/08/16 13:02:54;;;;;;;7.57;4.88;;;;;;;;;;5052804;28;20036;-59
2022/08/16 13:05:20;;;;;;;6.72;4.60;;;;;;;;;;5062068;28;20107;-59
2022/08/16 13:07:46;;;;;;;10.35;4.60;;;;;;;;;;5059876;28;20115;-59
2022/08/16 13:10:13;;;;;;;5.75;4.45;;;;;;;;;;5062418;28;20028;-59
2022/08/16 13:12:42;;;;;;;6.50;4.50;;;;;;;;;;5062549;28;20048;-59
2022/08/16 13:15:11;;;;;;;5.55;4.60;;;;;;;;;;5065036;28;20061;-59
2022/08/16 13:17:38;;;;;;;8.40;4.93;;;;;;;;;;5064115;28;20074;-59
2022/08/16 13:20:07;;;;;;;6.10;4.75;;;;;;;;;;5065805;28;20032;-59
2022/08/16 13:22:32;;;;;;;5.13;4.50;;;;;;;;;;5064598;28;20024;-59
2022/08/16 13:24:58;;;;;;;7.30;4.55;;;;;;;;;;5062935;28;20032;-59
2022/08/16 13:27:23;;;;;;;6.65;4.60;;;;;;;;;;5064722;28;20489;-59
2022/08/16 13:29:49;;;;;;;7.50;4.22;;;;;;;;;;5062135;28;20486;-59
2022/08/16 13:32:14;;;;;;;4.85;4.35;;;;;;;;;;5062132;28;20036;-59
2022/08/16 13:34:39;;;;;;;7.75;4.32;;;;;;;;;;5066326;28;20516;-59
2022/08/16 13:37:05;;;;;;;6.93;4.50;;;;;;;;;;5065063;28;20029;-59
2022/08/16 13:39:31;;;;;;;11.48;5.03;;;;;;;;;;5063486;28;20042;-59
2022/08/16 13:42:01;;;;;;;5.15;4.10;;;;;;;;;;5062563;28;20039;-58
2022/08/16 13:44:26;;;;;;;6.03;4.72;;;;;;;;;;5065999;28;20031;-59
2022/08/16 13:46:52;;;;;;;5.85;4.32;;;;;;;;;;5065808;28;20036;-59
2022/08/16 13:49:17;;;;;;;5.82;4.15;;;;;;;;;;5066395;28;20077;-59
2022/08/16 13:51:43;;;;;;;4.75;4.20;;;;;;;;;;5061693;28;20456;-58
2022/08/16 13:54:08;;;;;;;5.40;4.32;;;;;;;;;;5067666;28;20028;-59
2022/08/16 13:56:35;;;;;;;5.70;4.53;;;;;;;;;;5060469;28;20409;-58
2022/08/16 13:59:01;;;;;;;6.72;4.28;;;;;;;;;;5063349;28;20032;-58
2022/08/16 14:01:27;;;;;;;6.35;4.40;;;;;;;;;;5063269;28;20031;-59
2022/08/16 14:03:53;;;;;;;7.20;4.40;;;;;;;;;;5064733;28;20397;-57
2022/08/16 14:06:18;;;;;;;8.45;4.30;;;;;;;;;;5061489;28;20061;-61
2022/08/16 14:08:45;;;;;;;7.05;4.22;;;;;;;;;;5066145;28;20071;-60
2022/08/16 14:11:12;;;;;;;5.15;4.30;;;;;;;;;;5066213;28;20040;-60
2022/08/16 14:13:38;;;;;;;4.57;4.15;;;;;;;;;;5064261;28;20052;-60
2022/08/16 14:16:04;;;;;;;8.27;4.50;;;;;;;;;;5064206;28;20075;-60
2022/08/16 14:18:29;;;;;;;6.22;4.35;;;;;;;;;;5065717;28;20012;-60
2022/08/16 14:20:55;;;;;;;5.68;4.30;;;;;;;;;;5066106;28;20469;-60
2022/08/16 14:23:20;;;;;;;5.28;4.53;;;;;;;;;;5062967;28;20070;-61
2022/08/16 14:25:46;;;;;;;5.70;4.20;;;;;;;;;;5064606;28;20036;-60
2022/08/16 14:28:11;;;;;;;5.53;4.43;;;;;;;;;;5064925;28;20017;-60
2022/08/16 14:30:37;;;;;;;7.50;4.25;;;;;;;;;;5061363;28;20025;-60
2022/08/16 14:33:04;;;;;;;4.75;4.28;;;;;;;;;;5061076;28;20036;-60
2022/08/16 14:35:31;;;;;;;6.95;4.38;;;;;;;;;;5068331;28;20032;-60
2022/08/16 14:37:58;;;;;;;7.25;4.57;;;;;;;;;;5057785;28;20029;-60